createdAt,value
2023-04-19T00:01:29.576Z,9.06
2023-04-19T00:03:56.977Z,9.09
2023-04-19T00:06:24.729Z,9.17
2023-04-19T00:08:51.427Z,9.26
2023-04-19T00:11:18.200Z,9.29
2023-04-19T00:13:44.894Z,9.37
2023-04-19T00:16:11.651Z,9.27
2023-04-19T00:18:38.879Z,9.27
2023-04-19T00:21:06.130Z,9.26
2023-04-19T00:23:32.821Z,9.32
2023-04-19T00:25:59.516Z,9.31
2023-04-19T00:28:26.336Z,9.30
2023-04-19T00:30:53.138Z,9.31
2023-04-19T00:33:19.864Z,9.24
2023-04-19T00:35:46.635Z,9.13
2023-04-19T00:38:13.212Z,8.92
2023-04-19T00:40:39.850Z,9.00
2023-04-19T00:43:06.451Z,8.87
2023-04-19T00:45:36.497Z,8.87
2023-04-19T00:48:03.256Z,8.80
2023-04-19T00:50:30.596Z,8.85
2023-04-19T00:52:57.970Z,8.82
2023-04-19T00:55:24.790Z,8.73
2023-04-19T00:57:52.378Z,8.68
2023-04-19T01:00:20.065Z,8.71
2023-04-19T01:02:48.009Z,8.66
2023-04-19T01:05:15.116Z,8.66
2023-04-19T01:07:42.542Z,8.63
2023-04-19T01:10:09.854Z,8.55
2023-04-19T01:12:36.541Z,8.54
2023-04-19T01:15:06.683Z,8.55
2023-04-19T01:17:33.507Z,8.42
2023-04-19T01:20:06.619Z,8.31
2023-04-19T01:22:33.254Z,8.27
2023-04-19T01:24:59.973Z,8.37
2023-04-19T01:27:26.612Z,8.20
2023-04-19T01:29:53.227Z,8.18
2023-04-19T01:32:19.826Z,8.20
2023-04-19T01:34:46.599Z,8.05
2023-04-19T01:37:13.197Z,8.18
2023-04-19T01:39:39.834Z,8.25
2023-04-19T01:42:06.403Z,8.16
2023-04-19T01:44:33.002Z,8.19
2023-04-19T01:46:59.856Z,8.23
2023-04-19T01:49:26.501Z,8.17
2023-04-19T01:51:53.131Z,8.25
2023-04-19T01:54:19.717Z,8.20
2023-04-19T01:56:46.267Z,8.19
2023-04-19T01:59:12.869Z,8.13
2023-04-19T02:01:39.541Z,8.06
2023-04-19T02:04:07.814Z,8.13
2023-04-19T02:06:34.473Z,7.97
2023-04-19T02:09:01.124Z,8.12
2023-04-19T02:11:27.718Z,7.97
2023-04-19T02:13:54.372Z,8.01
2023-04-19T02:16:21.074Z,7.96
2023-04-19T02:18:48.220Z,7.94
2023-04-19T02:21:14.844Z,7.97
2023-04-19T02:23:41.483Z,7.91
2023-04-19T02:26:08.197Z,7.79
2023-04-19T02:28:34.970Z,7.83
2023-04-19T02:31:05.859Z,7.79
2023-04-19T02:33:32.541Z,7.84
2023-04-19T02:35:59.110Z,7.84
2023-04-19T02:38:25.777Z,7.75
2023-04-19T02:40:52.438Z,7.76
2023-04-19T02:43:19.012Z,7.73
2023-04-19T02:45:45.789Z,7.60
2023-04-19T02:48:12.485Z,7.65
2023-04-19T02:50:39.103Z,7.70
2023-04-19T02:53:06.032Z,7.64
2023-04-19T02:55:33.393Z,7.69
2023-04-19T02:58:00.048Z,7.72
2023-04-19T03:00:26.921Z,7.74
2023-04-19T03:02:53.719Z,7.66
2023-04-19T03:05:20.530Z,7.74
2023-04-19T03:07:47.310Z,7.77
2023-04-19T03:10:14.048Z,7.70
2023-04-19T03:12:40.616Z,7.71
2023-04-19T03:15:08.471Z,7.68
2023-04-19T03:17:35.882Z,7.66
2023-04-19T03:20:02.795Z,7.65
2023-04-19T03:22:29.692Z,7.54
2023-04-19T03:24:56.840Z,7.50
2023-04-19T03:27:23.569Z,7.58
2023-04-19T03:29:50.335Z,7.53
2023-04-19T03:32:16.941Z,7.54
2023-04-19T03:34:43.608Z,7.38
2023-04-19T03:37:10.172Z,7.45
2023-04-19T03:39:36.983Z,7.40
2023-04-19T03:42:05.682Z,7.36
2023-04-19T03:44:33.378Z,7.33
2023-04-19T03:47:00.016Z,7.40
2023-04-19T03:49:26.700Z,7.32
2023-04-19T03:51:53.347Z,7.33
2023-04-19T03:54:19.930Z,7.35
2023-04-19T03:56:46.584Z,7.30
2023-04-19T03:59:13.257Z,7.36
2023-04-19T04:01:42.389Z,7.24
2023-04-19T04:04:09.678Z,7.38
2023-04-19T04:06:36.433Z,7.33
2023-04-19T04:09:03.887Z,7.28
2023-04-19T04:11:31.017Z,7.25
2023-04-19T04:13:57.814Z,7.25
2023-04-19T04:16:24.573Z,7.21
2023-04-19T04:18:51.350Z,7.14
2023-04-19T04:21:18.002Z,7.18
2023-04-19T04:23:45.672Z,7.30
2023-04-19T04:26:14.042Z,7.31
2023-04-19T04:28:40.788Z,7.23
2023-04-19T04:31:07.557Z,7.27
2023-04-19T04:33:34.174Z,7.23
2023-04-19T04:36:00.846Z,7.24
2023-04-19T04:38:27.586Z,7.41
2023-04-19T04:40:55.322Z,7.30
2023-04-19T04:43:23.737Z,7.32
2023-04-19T04:45:50.545Z,7.36
2023-04-19T04:48:17.809Z,7.41
2023-04-19T04:50:44.397Z,7.48
2023-04-19T04:53:13.245Z,7.52
2023-04-19T04:55:40.124Z,7.52
2023-04-19T04:58:07.374Z,7.47
2023-04-19T05:00:34.585Z,7.53
2023-04-19T05:03:02.987Z,7.58
2023-04-19T05:05:29.961Z,7.63
2023-04-19T05:07:56.635Z,7.51
2023-04-19T05:10:23.458Z,7.53
2023-04-19T05:12:50.073Z,7.61
2023-04-19T05:15:16.985Z,7.68
2023-04-19T05:17:43.822Z,7.73
2023-04-19T05:20:11.161Z,7.76
2023-04-19T05:22:38.049Z,7.83
2023-04-19T05:25:06.001Z,7.84
2023-04-19T05:27:32.696Z,7.80
2023-04-19T05:29:59.334Z,7.88
2023-04-19T05:32:26.225Z,7.81
2023-04-19T05:34:53.173Z,7.76
2023-04-19T05:37:19.842Z,8.00
2023-04-19T05:39:46.495Z,8.02
2023-04-19T05:42:13.241Z,8.09
2023-04-19T05:44:39.884Z,8.20
2023-04-19T05:47:06.484Z,8.36
2023-04-19T05:49:33.110Z,8.65
2023-04-19T05:51:59.753Z,8.67
2023-04-19T05:54:28.146Z,8.91
2023-04-19T05:56:55.024Z,8.84
2023-04-19T05:59:21.636Z,8.76
2023-04-19T06:01:48.276Z,8.81
2023-04-19T06:04:15.239Z,8.82
2023-04-19T06:06:42.320Z,8.86
2023-04-19T06:09:08.943Z,8.84
2023-04-19T06:11:47.115Z,8.84
2023-04-19T06:14:16.890Z,8.65
2023-04-19T06:16:43.759Z,8.60
2023-04-19T06:19:10.323Z,8.70
2023-04-19T06:21:36.996Z,8.70
2023-04-19T06:24:03.897Z,8.83
2023-04-19T06:26:30.666Z,8.91
2023-04-19T06:28:57.362Z,9.08
2023-04-19T06:31:26.884Z,9.08
2023-04-19T06:33:53.573Z,9.03
2023-04-19T06:36:20.609Z,9.16
2023-04-19T06:38:47.204Z,9.12
2023-04-19T06:41:13.835Z,9.05
2023-04-19T06:43:42.164Z,9.01
2023-04-19T06:46:09.138Z,9.01
2023-04-19T06:48:36.122Z,9.13
2023-04-19T06:51:02.811Z,9.07
2023-04-19T06:53:29.547Z,9.05
2023-04-19T06:56:03.051Z,9.09
2023-04-19T06:58:29.794Z,9.05
2023-04-19T07:00:56.822Z,9.06
2023-04-19T07:03:23.632Z,9.11
2023-04-19T07:05:52.425Z,9.19
2023-04-19T07:08:19.096Z,9.37
2023-04-19T07:10:45.723Z,9.42
2023-04-19T07:13:12.655Z,9.52
2023-04-19T07:15:39.308Z,9.58
2023-04-19T07:18:05.953Z,9.57
2023-04-19T07:20:32.731Z,9.65
2023-04-19T07:22:59.781Z,9.69
2023-04-19T07:25:27.075Z,9.81
2023-04-19T07:27:54.805Z,9.98
2023-04-19T07:30:21.618Z,9.89
2023-04-19T07:32:48.553Z,9.85
2023-04-19T07:35:15.350Z,9.81
2023-04-19T07:37:42.645Z,9.68
2023-04-19T07:40:09.927Z,9.63
2023-04-19T07:42:36.829Z,9.78
2023-04-19T07:45:03.586Z,9.80
2023-04-19T07:47:31.432Z,9.89
2023-04-19T07:49:58.153Z,10.02
2023-04-19T07:52:24.853Z,10.17
2023-04-19T07:54:51.490Z,10.33
2023-04-19T07:57:18.206Z,10.19
2023-04-19T07:59:44.839Z,10.18
2023-04-19T08:02:11.540Z,10.20
2023-04-19T08:04:39.687Z,10.11
2023-04-19T08:07:06.920Z,10.29
2023-04-19T08:09:34.348Z,10.17
2023-04-19T08:12:01.610Z,10.31
2023-04-19T08:14:40.512Z,10.30
2023-04-19T08:17:23.923Z,10.52
2023-04-19T08:19:53.011Z,10.68
2023-04-19T08:22:20.317Z,10.73
2023-04-19T08:24:49.240Z,10.73
2023-04-19T08:27:15.864Z,10.75
2023-04-19T08:29:42.564Z,11.05
2023-04-19T08:32:09.331Z,10.96
2023-04-19T08:34:37.445Z,11.11
2023-04-19T08:37:05.052Z,11.23
2023-04-19T08:39:33.970Z,10.96
2023-04-19T08:42:24.188Z,10.95
2023-04-19T08:45:23.350Z,10.92
2023-04-19T08:47:58.642Z,11.11
2023-04-19T08:50:33.598Z,11.61
2023-04-19T08:53:16.512Z,11.62
2023-04-19T08:56:08.480Z,11.79
2023-04-19T08:58:54.851Z,11.73
2023-04-19T09:01:33.665Z,11.95
2023-04-19T09:04:21.673Z,12.04
2023-04-19T09:06:52.263Z,12.17
2023-04-19T09:11:51.113Z,12.78
2023-04-19T09:14:19.509Z,12.97
2023-04-19T09:16:47.111Z,12.81
2023-04-19T09:19:23.353Z,13.12
2023-04-19T09:21:53.134Z,12.95
2023-04-19T09:24:19.798Z,13.04
2023-04-19T09:26:54.789Z,12.98
2023-04-19T09:29:21.860Z,13.06
2023-04-19T09:31:59.013Z,13.18
2023-04-19T09:34:25.892Z,13.35
2023-04-19T09:37:04.445Z,13.33
2023-04-19T09:39:38.443Z,13.28
2023-04-19T09:42:05.256Z,13.62
2023-04-19T09:45:12.634Z,13.37
2023-04-19T09:47:29.904Z,13.43
2023-04-19T09:50:18.857Z,13.68
2023-04-19T09:52:50.326Z,13.44
2023-04-19T09:57:48.439Z,12.69
2023-04-19T10:00:15.783Z,12.65
2023-04-19T10:02:43.620Z,12.72
2023-04-19T10:05:20.752Z,12.78
2023-04-19T10:07:49.428Z,12.96
2023-04-19T10:10:20.720Z,12.97
2023-04-19T10:15:26.815Z,13.17
2023-04-19T10:17:56.729Z,13.25
2023-04-19T10:20:30.409Z,13.27
2023-04-19T10:22:57.373Z,13.03
2023-04-19T10:25:33.126Z,12.99
2023-04-19T10:27:59.867Z,12.99
2023-04-19T10:30:27.304Z,13.08
2023-04-19T10:32:56.354Z,13.35
2023-04-19T10:35:37.749Z,13.69
2023-04-19T10:38:16.532Z,13.82
2023-04-19T10:40:52.522Z,13.67
2023-04-19T10:43:19.868Z,13.65
2023-04-19T10:45:47.783Z,13.57
2023-04-19T10:48:27.648Z,13.57
2023-04-19T10:51:07.476Z,13.69
2023-04-19T10:54:00.094Z,13.77
2023-04-19T10:56:32.860Z,13.75
2023-04-19T10:59:03.021Z,13.80
2023-04-19T11:01:43.549Z,13.62
2023-04-19T11:04:15.657Z,13.79
2023-04-19T11:06:54.317Z,13.37
2023-04-19T11:09:34.541Z,13.40
2023-04-19T11:12:08.337Z,13.69
2023-04-19T11:14:57.599Z,13.94
2023-04-19T11:17:27.759Z,14.30
2023-04-19T11:20:13.584Z,14.29
2023-04-19T11:22:42.471Z,14.24
2023-04-19T11:25:12.527Z,14.55
2023-04-19T11:27:41.174Z,14.60
2023-04-19T11:30:11.514Z,15.10
2023-04-19T11:32:44.266Z,15.05
2023-04-19T11:35:11.284Z,14.83
2023-04-19T11:37:39.320Z,14.80
2023-04-19T11:40:07.364Z,14.97
2023-04-19T11:42:34.170Z,14.97
2023-04-19T11:45:00.818Z,15.21
2023-04-19T11:47:28.051Z,15.01
2023-04-19T11:49:56.007Z,15.23
2023-04-19T11:52:26.555Z,15.29
2023-04-19T11:54:53.991Z,15.18
2023-04-19T11:57:31.012Z,15.48
2023-04-19T12:00:12.441Z,15.60
2023-04-19T12:02:41.108Z,15.64
2023-04-19T12:05:10.352Z,15.69
2023-04-19T12:07:37.344Z,15.99
2023-04-19T12:10:12.167Z,16.28
2023-04-19T12:12:39.390Z,16.33
2023-04-19T12:15:06.718Z,15.89
2023-04-19T12:17:33.322Z,15.61
2023-04-19T12:19:59.910Z,15.90
2023-04-19T12:22:26.590Z,15.80
2023-04-19T12:24:54.453Z,15.65
2023-04-19T12:27:21.058Z,15.64
2023-04-19T12:29:47.657Z,16.00
2023-04-19T12:32:16.147Z,15.78
2023-04-19T12:34:42.891Z,15.71
2023-04-19T12:37:09.626Z,15.34
2023-04-19T12:39:36.207Z,14.90
2023-04-19T12:42:02.949Z,15.15
2023-04-19T12:44:29.594Z,15.87
2023-04-19T12:46:57.789Z,15.65
2023-04-19T12:49:24.618Z,15.15
2023-04-19T12:51:51.337Z,14.94
2023-04-19T12:54:17.994Z,13.92
2023-04-19T12:56:44.639Z,13.13
2023-04-19T12:59:11.584Z,12.44
2023-04-19T13:01:38.523Z,12.14
2023-04-19T13:04:05.523Z,11.99
2023-04-19T13:06:32.233Z,11.86
2023-04-19T13:09:01.109Z,11.97
2023-04-19T13:11:28.633Z,11.98
2023-04-19T13:13:55.312Z,12.05
2023-04-19T13:16:22.643Z,12.12
2023-04-19T13:18:49.631Z,12.16
2023-04-19T13:21:16.384Z,12.16
2023-04-19T13:23:44.378Z,12.27
2023-04-19T13:26:11.286Z,12.40
2023-04-19T13:28:37.909Z,12.39
2023-04-19T13:31:05.796Z,12.53
2023-04-19T13:33:32.730Z,12.61
2023-04-19T13:35:59.316Z,12.61
2023-04-19T13:38:26.061Z,12.64
2023-04-19T13:40:52.815Z,12.97
2023-04-19T13:43:19.558Z,13.22
2023-04-19T13:45:46.329Z,13.37
2023-04-19T13:48:13.048Z,13.60
2023-04-19T13:50:39.738Z,13.33
2023-04-19T13:53:06.584Z,13.02
2023-04-19T13:55:33.626Z,13.04
2023-04-19T13:58:00.330Z,12.78
2023-04-19T14:00:27.057Z,12.74
2023-04-19T14:02:54.781Z,12.67
2023-04-19T14:05:21.508Z,12.75
2023-04-19T14:07:48.151Z,12.79
2023-04-19T14:10:14.769Z,12.86
2023-04-19T14:12:41.461Z,12.95
2023-04-19T14:15:08.598Z,13.02
2023-04-19T14:17:36.143Z,13.10
2023-04-19T14:20:06.362Z,13.09
2023-04-19T14:22:35.180Z,12.91
2023-04-19T14:25:02.416Z,12.98
2023-04-19T14:27:29.000Z,13.06
2023-04-19T14:29:55.684Z,13.09
2023-04-19T14:32:26.468Z,13.26
2023-04-19T14:34:55.869Z,13.19
2023-04-19T14:37:24.388Z,13.18
2023-04-19T14:39:51.563Z,13.21
2023-04-19T14:42:20.084Z,13.32
2023-04-19T14:44:51.041Z,13.27
2023-04-19T14:47:17.707Z,12.95
2023-04-19T14:49:44.360Z,12.58
2023-04-19T14:52:11.145Z,12.27
2023-04-19T14:54:37.995Z,12.05
2023-04-19T14:57:04.588Z,11.71
2023-04-19T14:59:31.199Z,11.52
2023-04-19T15:01:58.046Z,11.33
2023-04-19T15:04:25.029Z,11.26
2023-04-19T15:06:51.838Z,11.21
2023-04-19T15:09:18.713Z,11.12
2023-04-19T15:11:45.735Z,11.07
2023-04-19T15:14:12.499Z,11.23
2023-04-19T15:16:39.314Z,11.33
2023-04-19T15:19:07.664Z,11.52
2023-04-19T15:21:34.721Z,11.64
2023-04-19T15:24:01.608Z,11.88
2023-04-19T15:26:28.467Z,12.00
2023-04-19T15:28:56.374Z,12.07
2023-04-19T15:31:25.044Z,11.92
2023-04-19T15:33:51.814Z,11.71
2023-04-19T15:36:18.364Z,11.55
2023-04-19T15:38:44.958Z,11.47
2023-04-19T15:41:11.592Z,11.51
2023-04-19T15:43:38.275Z,11.50
2023-04-19T15:46:05.053Z,11.48
2023-04-19T15:48:31.843Z,11.50
2023-04-19T15:50:59.142Z,11.60
2023-04-19T15:53:25.791Z,11.71
2023-04-19T15:55:54.222Z,11.89
2023-04-19T15:58:22.232Z,12.00
2023-04-19T16:00:50.290Z,12.16
2023-04-19T16:03:16.944Z,12.20
2023-04-19T16:05:43.565Z,12.25
2023-04-19T16:08:11.890Z,12.12
2023-04-19T16:10:39.479Z,11.73
2023-04-19T16:13:06.648Z,11.72
2023-04-19T16:15:33.325Z,11.83
2023-04-19T16:18:00.017Z,11.73
2023-04-19T16:20:26.848Z,11.78
2023-04-19T16:22:53.581Z,11.73
2023-04-19T16:25:20.334Z,11.65
2023-04-19T16:27:47.645Z,11.53
2023-04-19T16:30:15.442Z,11.50
2023-04-19T16:32:42.664Z,11.42
2023-04-19T16:35:09.941Z,11.33
2023-04-19T16:37:36.951Z,11.38
2023-04-19T16:40:08.421Z,11.36
2023-04-19T16:42:36.492Z,11.27
2023-04-19T16:45:04.536Z,11.36
2023-04-19T16:47:31.310Z,11.33
2023-04-19T16:50:02.263Z,11.37
2023-04-19T16:52:34.305Z,11.39
2023-04-19T16:55:03.707Z,11.35
2023-04-19T16:57:31.793Z,11.31
2023-04-19T16:59:59.028Z,11.13
2023-04-19T17:02:26.276Z,11.08
2023-04-19T17:04:53.162Z,11.03
2023-04-19T17:07:19.920Z,10.98
2023-04-19T17:09:47.099Z,10.85
2023-04-19T17:12:14.299Z,10.90
2023-04-19T17:14:41.159Z,10.90
2023-04-19T17:17:07.970Z,10.80
2023-04-19T17:19:34.852Z,10.83
2023-04-19T17:22:05.608Z,10.80
2023-04-19T17:24:33.360Z,10.71
2023-04-19T17:27:00.888Z,10.68
2023-04-19T17:29:28.603Z,10.74
2023-04-19T17:31:56.228Z,10.67
2023-04-19T17:34:23.354Z,10.68
2023-04-19T17:36:50.081Z,10.66
2023-04-19T17:39:17.199Z,10.62
2023-04-19T17:41:44.907Z,10.47
2023-04-19T17:44:12.632Z,10.47
2023-04-19T17:46:40.512Z,10.44
2023-04-19T17:49:07.263Z,10.37
2023-04-19T17:51:33.941Z,10.41
2023-04-19T17:54:00.697Z,10.36
2023-04-19T17:56:27.565Z,10.20
2023-04-19T17:58:54.474Z,10.44
2023-04-19T18:01:21.339Z,10.47
2023-04-19T18:03:48.292Z,10.49
2023-04-19T18:06:16.493Z,10.56
2023-04-19T18:08:46.425Z,10.44
2023-04-19T18:11:13.545Z,10.37
2023-04-19T18:13:40.202Z,10.43
2023-04-19T18:16:06.995Z,10.41
2023-04-19T18:18:33.811Z,10.41
2023-04-19T18:21:05.230Z,10.46
2023-04-19T18:23:32.470Z,10.45
2023-04-19T18:26:02.887Z,10.46
2023-04-19T18:28:30.024Z,10.39
2023-04-19T18:31:02.388Z,10.45
2023-04-19T18:33:29.029Z,10.42
2023-04-19T18:35:55.710Z,10.31
2023-04-19T18:38:22.604Z,10.15
2023-04-19T18:40:49.730Z,10.28
2023-04-19T18:43:16.381Z,10.27
2023-04-19T18:45:43.041Z,10.30
2023-04-19T18:48:10.188Z,10.24
2023-04-19T18:50:38.193Z,10.27
2023-04-19T18:53:04.863Z,10.20
2023-04-19T18:55:31.623Z,10.09
2023-04-19T18:58:01.111Z,10.07
2023-04-19T19:00:28.559Z,10.06
2023-04-19T19:02:57.329Z,10.01
2023-04-19T19:05:24.381Z,9.85
2023-04-19T19:07:51.360Z,9.81
2023-04-19T19:10:21.761Z,9.77
2023-04-19T19:12:49.937Z,9.76
2023-04-19T19:15:17.533Z,9.78
2023-04-19T19:17:49.381Z,9.80
2023-04-19T19:20:17.569Z,9.86
2023-04-19T19:22:45.602Z,9.81
2023-04-19T19:25:13.214Z,9.93
2023-04-19T19:27:40.170Z,9.97
2023-04-19T19:30:08.036Z,9.99
2023-04-19T19:32:35.366Z,9.95
2023-04-19T19:35:06.381Z,10.01
2023-04-19T19:37:36.454Z,9.91
2023-04-19T19:40:06.403Z,9.96
2023-04-19T19:42:34.545Z,9.88
2023-04-19T19:45:02.401Z,9.92
2023-04-19T19:47:31.652Z,9.91
2023-04-19T19:52:28.653Z,9.90
2023-04-19T19:54:55.415Z,9.86
2023-04-19T19:59:56.224Z,9.80
2023-04-19T20:02:26.623Z,9.82
2023-04-19T20:04:53.885Z,9.72
2023-04-19T20:09:52.397Z,9.59
2023-04-19T20:12:19.174Z,9.61
2023-04-19T20:14:45.755Z,9.40
2023-04-19T20:17:12.432Z,9.41
2023-04-19T20:19:39.801Z,9.25
2023-04-19T20:22:06.387Z,9.26
2023-04-19T20:24:33.803Z,9.29
2023-04-19T20:27:01.286Z,9.29
2023-04-19T20:29:27.893Z,9.18
2023-04-19T20:31:54.590Z,9.19
2023-04-19T20:34:21.381Z,9.15
2023-04-19T20:36:48.328Z,9.20
2023-04-19T20:39:15.255Z,9.21
2023-04-19T20:41:42.049Z,9.24
2023-04-19T20:44:08.684Z,9.33
2023-04-19T20:46:35.913Z,9.36
2023-04-19T20:49:02.740Z,9.32
2023-04-19T20:51:29.306Z,9.32
2023-04-19T20:53:56.187Z,9.31
2023-04-19T20:56:23.173Z,9.39
2023-04-19T20:58:49.940Z,9.20
2023-04-19T21:01:17.605Z,9.35
2023-04-19T21:03:45.041Z,9.24
2023-04-19T21:06:12.656Z,9.31
2023-04-19T21:08:39.340Z,9.27
2023-04-19T21:11:06.035Z,9.26
2023-04-19T21:13:33.208Z,9.19
2023-04-19T21:16:00.042Z,9.27
2023-04-19T21:18:29.754Z,9.29
2023-04-19T21:20:57.754Z,9.23
2023-04-19T21:23:24.480Z,9.26
2023-04-19T21:25:51.572Z,9.24
2023-04-19T21:28:18.229Z,9.27
2023-04-19T21:30:45.098Z,9.18
2023-04-19T21:33:11.915Z,9.14
2023-04-19T21:35:38.769Z,9.15
2023-04-19T21:38:05.555Z,9.15
2023-04-19T21:40:32.146Z,9.09
2023-04-19T21:42:58.882Z,9.01
2023-04-19T21:45:25.637Z,9.08
2023-04-19T21:47:52.341Z,9.11
2023-04-19T21:50:19.180Z,9.18
2023-04-19T21:52:45.913Z,9.25
2023-04-19T21:55:12.641Z,9.27
2023-04-19T21:57:39.288Z,9.25
2023-04-19T22:00:09.251Z,9.24
2023-04-19T22:02:36.441Z,9.25
2023-04-19T22:05:03.480Z,9.25
2023-04-19T22:07:33.310Z,9.25
2023-04-19T22:10:02.884Z,9.39
2023-04-19T22:12:29.491Z,9.31
2023-04-19T22:14:56.158Z,9.30
2023-04-19T22:17:23.216Z,9.23
2023-04-19T22:19:50.080Z,9.28
2023-04-19T22:22:16.719Z,9.24
2023-04-19T22:24:56.302Z,9.33
2023-04-19T22:27:24.467Z,9.35
2023-04-19T22:29:51.116Z,9.28
2023-04-19T22:32:18.067Z,9.21
2023-04-19T22:34:45.036Z,9.33
2023-04-19T22:37:11.792Z,9.38
2023-04-19T22:39:38.429Z,9.38
2023-04-19T22:42:05.414Z,9.33
2023-04-19T22:44:32.143Z,9.38
2023-04-19T22:47:00.057Z,9.38
2023-04-19T22:49:26.729Z,9.33
2023-04-19T22:51:54.988Z,9.41
2023-04-19T22:54:22.084Z,9.36
2023-04-19T22:56:48.736Z,9.39
2023-04-19T22:59:15.700Z,9.23
2023-04-19T23:01:42.462Z,9.26
2023-04-19T23:04:13.970Z,9.24
2023-04-19T23:06:42.577Z,9.15
2023-04-19T23:09:11.092Z,9.25
2023-04-19T23:11:37.745Z,9.28
2023-04-19T23:14:04.558Z,9.27
2023-04-19T23:16:33.498Z,9.27
2023-04-19T23:19:01.144Z,9.19
2023-04-19T23:21:30.038Z,9.07
2023-04-19T23:23:56.746Z,9.05
2023-04-19T23:26:23.426Z,9.01
2023-04-19T23:28:50.044Z,9.04
2023-04-19T23:31:16.680Z,9.04
2023-04-19T23:33:43.363Z,8.96
2023-04-19T23:36:10.088Z,8.83
2023-04-19T23:38:36.776Z,8.87
2023-04-19T23:41:03.472Z,8.79
2023-04-19T23:43:30.945Z,8.78
2023-04-19T23:45:57.564Z,8.71
2023-04-19T23:48:24.143Z,8.68
2023-04-19T23:50:50.686Z,8.60
2023-04-19T23:53:17.377Z,8.60
2023-04-19T23:55:44.022Z,8.62
2023-04-19T23:58:10.631Z,8.55
